sensor_id;sensor_type;location;lat;lon;timestamp;pressure;altitude;pressure_sealevel;temperature;humidity
21863;BME280;11096;51.338;12.524;2023-09-12T00:01:04;99785.22;;;18.35;73.44
21863;BME280;11096;51.338;12.524;2023-09-12T00:03:31;99787.19;;;18.24;73.97
21863;BME280;11096;51.338;12.524;2023-09-12T00:05:58;99790.66;;;18.17;74.19
21863;BME280;11096;51.338;12.524;2023-09-12T00:08:24;99786.69;;;18.21;74.09
21863;BME280;11096;51.338;12.524;2023-09-12T00:13:29;99790.47;;;18.10;74.17
21863;BME280;11096;51.338;12.524;2023-09-12T00:15:54;99785.53;;;18.07;74.71
21863;BME280;11096;51.338;12.524;2023-09-12T00:18:20;99780.94;;;18.09;74.67
21863;BME280;11096;51.338;12.524;2023-09-12T00:20:45;99778.97;;;18.03;74.44
21863;BME280;11096;51.338;12.524;2023-09-12T00:23:10;99789.13;;;18.06;74.60
21863;BME280;11096;51.338;12.524;2023-09-12T00:25:36;99790.81;;;18.07;74.35
21863;BME280;11096;51.338;12.524;2023-09-12T00:28:01;99793.59;;;18.06;74.63
21863;BME280;11096;51.338;12.524;2023-09-12T00:30:27;99793.75;;;18.04;74.42
21863;BME280;11096;51.338;12.524;2023-09-12T00:32:52;99794.72;;;18.03;74.30
21863;BME280;11096;51.338;12.524;2023-09-12T00:35:17;99793.06;;;17.94;75.24
21863;BME280;11096;51.338;12.524;2023-09-12T00:37:43;99795.41;;;18.05;74.43
21863;BME280;11096;51.338;12.524;2023-09-12T00:40:08;99786.66;;;17.96;74.50
21863;BME280;11096;51.338;12.524;2023-09-12T00:42:34;99781.88;;;17.84;75.01
21863;BME280;11096;51.338;12.524;2023-09-12T00:44:59;99786.09;;;17.76;75.61
21863;BME280;11096;51.338;12.524;2023-09-12T00:47:25;99790.91;;;17.81;75.97
21863;BME280;11096;51.338;12.524;2023-09-12T00:49:52;99789.34;;;17.62;76.45
21863;BME280;11096;51.338;12.524;2023-09-12T00:52:19;99782.47;;;17.69;76.07
21863;BME280;11096;51.338;12.524;2023-09-12T00:54:45;99789.34;;;17.62;76.29
21863;BME280;11096;51.338;12.524;2023-09-12T00:57:11;99788.13;;;17.83;75.15
21863;BME280;11096;51.338;12.524;2023-09-12T00:59:36;99783.69;;;17.83;75.22
21863;BME280;11096;51.338;12.524;2023-09-12T01:02:02;99785.63;;;17.73;74.72
21863;BME280;11096;51.338;12.524;2023-09-12T01:04:28;99785.44;;;17.74;74.85
21863;BME280;11096;51.338;12.524;2023-09-12T01:06:54;99787.09;;;17.75;74.74
21863;BME280;11096;51.338;12.524;2023-09-12T01:09:21;99795.19;;;17.39;75.88
21863;BME280;11096;51.338;12.524;2023-09-12T01:11:46;99794.38;;;17.39;76.44
21863;BME280;11096;51.338;12.524;2023-09-12T01:14:12;99791.41;;;17.34;76.82
21863;BME280;11096;51.338;12.524;2023-09-12T01:16:37;99792.03;;;17.28;77.01
21863;BME280;11096;51.338;12.524;2023-09-12T01:19:04;99791.88;;;17.29;77.35
21863;BME280;11096;51.338;12.524;2023-09-12T01:21:48;99786.13;;;17.26;77.67
21863;BME280;11096;51.338;12.524;2023-09-12T01:29:51;99785.72;;;17.12;77.61
21863;BME280;11096;51.338;12.524;2023-09-12T01:32:20;99792.41;;;17.07;77.77
21863;BME280;11096;51.338;12.524;2023-09-12T01:34:45;99781.34;;;17.21;77.55
21863;BME280;11096;51.338;12.524;2023-09-12T01:37:11;99785.91;;;17.19;78.04
21863;BME280;11096;51.338;12.524;2023-09-12T01:39:36;99784.28;;;17.18;77.61
21863;BME280;11096;51.338;12.524;2023-09-12T01:42:02;99787.53;;;17.12;77.87
21863;BME280;11096;51.338;12.524;2023-09-12T01:44:28;99780.00;;;17.17;77.74
21863;BME280;11096;51.338;12.524;2023-09-12T01:46:57;99784.34;;;17.34;77.71
21863;BME280;11096;51.338;12.524;2023-09-12T01:49:27;99793.56;;;17.38;76.75
21863;BME280;11096;51.338;12.524;2023-09-12T01:51:54;99777.13;;;17.36;76.93
21863;BME280;11096;51.338;12.524;2023-09-12T01:54:21;99785.94;;;17.27;77.38
21863;BME280;11096;51.338;12.524;2023-09-12T01:56:47;99779.41;;;17.31;77.48
21863;BME280;11096;51.338;12.524;2023-09-12T01:59:13;99780.22;;;17.32;76.87
21863;BME280;11096;51.338;12.524;2023-09-12T02:01:38;99781.69;;;17.26;76.86
21863;BME280;11096;51.338;12.524;2023-09-12T02:04:04;99773.66;;;17.28;77.14
21863;BME280;11096;51.338;12.524;2023-09-12T02:06:34;99770.16;;;17.19;77.17
21863;BME280;11096;51.338;12.524;2023-09-12T02:08:59;99775.41;;;17.19;77.39
21863;BME280;11096;51.338;12.524;2023-09-12T02:11:26;99775.97;;;17.31;77.40
21863;BME280;11096;51.338;12.524;2023-09-12T02:13:51;99773.50;;;17.37;77.38
21863;BME280;11096;51.338;12.524;2023-09-12T02:16:17;99772.66;;;17.29;77.02
21863;BME280;11096;51.338;12.524;2023-09-12T02:18:42;99776.09;;;17.21;77.65
21863;BME280;11096;51.338;12.524;2023-09-12T02:21:08;99775.09;;;17.22;77.80
21863;BME280;11096;51.338;12.524;2023-09-12T02:23:33;99766.19;;;17.15;77.90
21863;BME280;11096;51.338;12.524;2023-09-12T02:25:58;99770.81;;;17.21;77.02
21863;BME280;11096;51.338;12.524;2023-09-12T02:28:24;99771.44;;;17.15;77.70
21863;BME280;11096;51.338;12.524;2023-09-12T02:30:50;99774.13;;;17.23;77.67
21863;BME280;11096;51.338;12.524;2023-09-12T02:33:15;99775.44;;;17.27;77.63
21863;BME280;11096;51.338;12.524;2023-09-12T02:35:40;99774.66;;;17.35;77.11
21863;BME280;11096;51.338;12.524;2023-09-12T02:38:06;99765.94;;;17.34;76.39
21863;BME280;11096;51.338;12.524;2023-09-12T02:40:32;99770.38;;;17.26;76.99
21863;BME280;11096;51.338;12.524;2023-09-12T02:42:57;99766.88;;;17.25;76.85
21863;BME280;11096;51.338;12.524;2023-09-12T02:45:22;99765.59;;;17.21;76.74
21863;BME280;11096;51.338;12.524;2023-09-12T02:47:48;99765.25;;;17.24;76.06
21863;BME280;11096;51.338;12.524;2023-09-12T02:50:13;99769.69;;;17.24;76.63
21863;BME280;11096;51.338;12.524;2023-09-12T02:52:39;99770.16;;;17.19;76.33
21863;BME280;11096;51.338;12.524;2023-09-12T02:55:04;99772.78;;;17.19;76.86
21863;BME280;11096;51.338;12.524;2023-09-12T02:57:30;99770.63;;;17.14;76.82
21863;BME280;11096;51.338;12.524;2023-09-12T02:59:55;99772.41;;;17.06;77.15
21863;BME280;11096;51.338;12.524;2023-09-12T03:02:21;99769.44;;;17.01;77.42
21863;BME280;11096;51.338;12.524;2023-09-12T03:04:46;99769.03;;;16.95;78.07
21863;BME280;11096;51.338;12.524;2023-09-12T03:07:12;99770.88;;;17.37;77.54
21863;BME280;11096;51.338;12.524;2023-09-12T03:09:37;99771.47;;;17.74;75.99
21863;BME280;11096;51.338;12.524;2023-09-12T03:12:04;99771.41;;;18.00;74.10
21863;BME280;11096;51.338;12.524;2023-09-12T03:14:29;99762.22;;;18.04;73.05
21863;BME280;11096;51.338;12.524;2023-09-12T03:16:55;99759.88;;;18.01;72.47
21863;BME280;11096;51.338;12.524;2023-09-12T03:19:21;99753.16;;;17.98;72.77
21863;BME280;11096;51.338;12.524;2023-09-12T03:21:46;99756.25;;;17.94;72.48
21863;BME280;11096;51.338;12.524;2023-09-12T03:24:12;99759.63;;;17.11;74.61
21863;BME280;11096;51.338;12.524;2023-09-12T03:26:37;99757.69;;;16.87;76.46
21863;BME280;11096;51.338;12.524;2023-09-12T03:29:03;99765.38;;;16.80;77.57
21863;BME280;11096;51.338;12.524;2023-09-12T03:31:29;99768.66;;;16.82;77.90
21863;BME280;11096;51.338;12.524;2023-09-12T03:33:54;99762.13;;;16.86;78.32
21863;BME280;11096;51.338;12.524;2023-09-12T03:36:20;99765.38;;;16.80;78.05
21863;BME280;11096;51.338;12.524;2023-09-12T03:38:46;99767.03;;;17.15;77.43
21863;BME280;11096;51.338;12.524;2023-09-12T03:41:11;99766.91;;;16.73;78.67
21863;BME280;11096;51.338;12.524;2023-09-12T03:43:37;99765.03;;;16.83;77.96
21863;BME280;11096;51.338;12.524;2023-09-12T03:46:03;99765.75;;;16.67;79.38
21863;BME280;11096;51.338;12.524;2023-09-12T03:48:29;99769.72;;;16.71;79.08
21863;BME280;11096;51.338;12.524;2023-09-12T03:50:56;99765.03;;;16.83;77.25
21863;BME280;11096;51.338;12.524;2023-09-12T03:53:22;99763.94;;;16.68;78.35
21863;BME280;11096;51.338;12.524;2023-09-12T03:55:47;99769.50;;;16.65;79.38
21863;BME280;11096;51.338;12.524;2023-09-12T03:58:13;99765.75;;;16.67;79.85
21863;BME280;11096;51.338;12.524;2023-09-12T04:00:38;99764.25;;;16.65;79.56
21863;BME280;11096;51.338;12.524;2023-09-12T04:03:04;99765.03;;;16.57;79.76
21863;BME280;11096;51.338;12.524;2023-09-12T04:05:29;99767.03;;;16.37;80.16
21863;BME280;11096;51.338;12.524;2023-09-12T04:07:54;99770.53;;;16.72;79.43
21863;BME280;11096;51.338;12.524;2023-09-12T04:10:20;99768.00;;;16.80;78.92
21863;BME280;11096;51.338;12.524;2023-09-12T04:12:46;99759.66;;;16.85;78.28
21863;BME280;11096;51.338;12.524;2023-09-12T04:15:11;99762.22;;;16.77;77.89
21863;BME280;11096;51.338;12.524;2023-09-12T04:17:37;99757.91;;;16.93;78.73
21863;BME280;11096;51.338;12.524;2023-09-12T04:20:02;99755.53;;;16.82;78.31
21863;BME280;11096;51.338;12.524;2023-09-12T04:22:29;99754.72;;;16.82;77.69
21863;BME280;11096;51.338;12.524;2023-09-12T04:24:55;99751.81;;;16.67;77.78
21863;BME280;11096;51.338;12.524;2023-09-12T04:27:20;99745.00;;;16.56;78.79
21863;BME280;11096;51.338;12.524;2023-09-12T04:29:45;99745.84;;;16.57;79.41
21863;BME280;11096;51.338;12.524;2023-09-12T04:32:11;99749.34;;;16.39;79.62
21863;BME280;11096;51.338;12.524;2023-09-12T04:34:37;99745.41;;;16.43;80.24
21863;BME280;11096;51.338;12.524;2023-09-12T04:37:02;99743.13;;;16.92;78.43
21863;BME280;11096;51.338;12.524;2023-09-12T04:39:28;99746.66;;;16.57;79.16
21863;BME280;11096;51.338;12.524;2023-09-12T04:41:55;99750.91;;;17.10;78.65
21863;BME280;11096;51.338;12.524;2023-09-12T04:44:20;99751.19;;;17.33;76.38
21863;BME280;11096;51.338;12.524;2023-09-12T04:46:46;99756.38;;;17.25;76.10
21863;BME280;11096;51.338;12.524;2023-09-12T04:49:11;99759.00;;;17.17;76.52
21863;BME280;11096;51.338;12.524;2023-09-12T04:51:37;99752.47;;;17.29;76.07
21863;BME280;11096;51.338;12.524;2023-09-12T04:54:03;99754.41;;;17.19;76.83
21863;BME280;11096;51.338;12.524;2023-09-12T04:56:28;99756.66;;;17.48;75.83
21863;BME280;11096;51.338;12.524;2023-09-12T04:58:53;99756.38;;;16.65;78.51
21863;BME280;11096;51.338;12.524;2023-09-12T05:01:19;99756.16;;;16.58;79.46
21863;BME280;11096;51.338;12.524;2023-09-12T05:03:44;99760.59;;;16.58;80.59
21863;BME280;11096;51.338;12.524;2023-09-12T05:06:10;99774.03;;;16.55;80.83
21863;BME280;11096;51.338;12.524;2023-09-12T05:08:36;99773.34;;;16.52;81.30
21863;BME280;11096;51.338;12.524;2023-09-12T05:11:01;99773.25;;;16.62;81.22
21863;BME280;11096;51.338;12.524;2023-09-12T05:13:28;99777.31;;;17.01;79.85
21863;BME280;11096;51.338;12.524;2023-09-12T05:15:53;99784.53;;;17.07;79.64
21863;BME280;11096;51.338;12.524;2023-09-12T05:18:19;99787.19;;;17.15;79.06
21863;BME280;11096;51.338;12.524;2023-09-12T05:20:44;99790.16;;;17.12;78.98
21863;BME280;11096;51.338;12.524;2023-09-12T05:23:10;99789.81;;;17.15;78.96
21863;BME280;11096;51.338;12.524;2023-09-12T05:25:36;99796.56;;;17.17;79.13
21863;BME280;11096;51.338;12.524;2023-09-12T05:28:01;99794.47;;;17.21;79.36
21863;BME280;11096;51.338;12.524;2023-09-12T05:30:26;99799.13;;;17.35;78.97
21863;BME280;11096;51.338;12.524;2023-09-12T05:32:52;99808.03;;;17.43;79.00
21863;BME280;11096;51.338;12.524;2023-09-12T05:35:18;99798.34;;;17.51;79.29
21863;BME280;11096;51.338;12.524;2023-09-12T05:37:43;99806.13;;;17.69;78.64
21863;BME280;11096;51.338;12.524;2023-09-12T05:40:09;99806.97;;;17.78;77.97
21863;BME280;11096;51.338;12.524;2023-09-12T05:42:35;99806.88;;;17.88;77.72
21863;BME280;11096;51.338;12.524;2023-09-12T05:45:01;99813.97;;;18.12;76.88
21863;BME280;11096;51.338;12.524;2023-09-12T05:47:26;99815.78;;;18.28;76.68
21863;BME280;11096;51.338;12.524;2023-09-12T05:49:52;99809.38;;;18.38;76.70
21863;BME280;11096;51.338;12.524;2023-09-12T05:52:17;99818.09;;;18.55;76.64
21863;BME280;11096;51.338;12.524;2023-09-12T05:54:43;99817.78;;;18.58;77.09
21863;BME280;11096;51.338;12.524;2023-09-12T05:57:09;99826.00;;;18.80;77.55
21863;BME280;11096;51.338;12.524;2023-09-12T05:59:37;99826.28;;;19.01;76.77
21863;BME280;11096;51.338;12.524;2023-09-12T06:02:06;99821.84;;;19.10;75.45
21863;BME280;11096;51.338;12.524;2023-09-12T06:04:35;99817.75;;;19.07;76.05
21863;BME280;11096;51.338;12.524;2023-09-12T06:07:01;99816.25;;;19.92;73.30
21863;BME280;11096;51.338;12.524;2023-09-12T06:09:27;99817.19;;;19.68;73.26
21863;BME280;11096;51.338;12.524;2023-09-12T06:11:53;99821.44;;;19.77;73.70
21863;BME280;11096;51.338;12.524;2023-09-12T06:14:19;99819.84;;;19.91;72.79
21863;BME280;11096;51.338;12.524;2023-09-12T06:16:44;99813.66;;;20.07;72.96
21863;BME280;11096;51.338;12.524;2023-09-12T06:19:10;99819.81;;;20.22;73.37
21863;BME280;11096;51.338;12.524;2023-09-12T06:21:35;99825.88;;;20.31;73.15
21863;BME280;11096;51.338;12.524;2023-09-12T06:24:18;99818.94;;;20.53;73.12
21863;BME280;11096;51.338;12.524;2023-09-12T06:26:44;99817.28;;;20.75;71.22
21863;BME280;11096;51.338;12.524;2023-09-12T06:29:09;99819.56;;;20.93;70.64
21863;BME280;11096;51.338;12.524;2023-09-12T06:31:35;99822.94;;;21.01;70.20
21863;BME280;11096;51.338;12.524;2023-09-12T06:34:01;99816.66;;;21.02;69.91
21863;BME280;11096;51.338;12.524;2023-09-12T06:36:27;99816.75;;;21.09;69.33
21863;BME280;11096;51.338;12.524;2023-09-12T06:38:55;99822.06;;;21.24;68.60
21863;BME280;11096;51.338;12.524;2023-09-12T06:41:20;99822.34;;;21.44;67.18
21863;BME280;11096;51.338;12.524;2023-09-12T06:43:46;99822.59;;;21.64;66.31
21863;BME280;11096;51.338;12.524;2023-09-12T06:46:12;99832.13;;;21.65;64.93
21863;BME280;11096;51.338;12.524;2023-09-12T06:48:37;99841.09;;;21.64;64.25
21863;BME280;11096;51.338;12.524;2023-09-12T06:51:05;99847.00;;;21.81;64.10
21863;BME280;11096;51.338;12.524;2023-09-12T06:53:31;99839.09;;;21.66;63.65
21863;BME280;11096;51.338;12.524;2023-09-12T06:55:56;99855.97;;;22.01;63.33
21863;BME280;11096;51.338;12.524;2023-09-12T06:58:22;99843.88;;;22.14;62.99
21863;BME280;11096;51.338;12.524;2023-09-12T07:00:48;99844.59;;;22.07;62.66
21863;BME280;11096;51.338;12.524;2023-09-12T07:03:13;99844.41;;;22.24;62.85
21863;BME280;11096;51.338;12.524;2023-09-12T07:05:40;99844.28;;;22.32;62.48
21863;BME280;11096;51.338;12.524;2023-09-12T07:08:06;99847.13;;;22.31;62.54
21863;BME280;11096;51.338;12.524;2023-09-12T07:10:32;99847.16;;;22.59;62.45
21863;BME280;11096;51.338;12.524;2023-09-12T07:12:57;99840.56;;;22.76;62.30
21863;BME280;11096;51.338;12.524;2023-09-12T07:15:22;99840.06;;;22.87;61.75
21863;BME280;11096;51.338;12.524;2023-09-12T07:17:48;99840.47;;;22.91;61.26
21863;BME280;11096;51.338;12.524;2023-09-12T07:20:13;99838.66;;;23.20;60.61
21863;BME280;11096;51.338;12.524;2023-09-12T07:22:40;99838.78;;;23.46;60.21
21863;BME280;11096;51.338;12.524;2023-09-12T07:25:06;99830.31;;;23.71;59.76
21863;BME280;11096;51.338;12.524;2023-09-12T07:27:32;99831.63;;;23.88;59.04
21863;BME280;11096;51.338;12.524;2023-09-12T07:29:57;99836.75;;;23.96;58.76
21863;BME280;11096;51.338;12.524;2023-09-12T07:32:22;99825.50;;;23.88;58.27
21863;BME280;11096;51.338;12.524;2023-09-12T07:34:49;99818.75;;;23.78;57.35
21863;BME280;11096;51.338;12.524;2023-09-12T07:37:15;99824.28;;;23.97;57.19
21863;BME280;11096;51.338;12.524;2023-09-12T07:39:40;99824.94;;;24.26;57.70
21863;BME280;11096;51.338;12.524;2023-09-12T07:42:06;99819.25;;;24.35;56.16
21863;BME280;11096;51.338;12.524;2023-09-12T07:44:31;99816.97;;;24.39;55.96
21863;BME280;11096;51.338;12.524;2023-09-12T07:46:56;99821.09;;;24.81;55.64
21863;BME280;11096;51.338;12.524;2023-09-12T07:49:22;99826.38;;;25.08;55.74
21863;BME280;11096;51.338;12.524;2023-09-12T07:51:49;99828.81;;;25.03;55.20
21863;BME280;11096;51.338;12.524;2023-09-12T07:54:15;99818.13;;;25.30;53.99
21863;BME280;11096;51.338;12.524;2023-09-12T07:56:40;99816.78;;;25.65;53.61
21863;BME280;11096;51.338;12.524;2023-09-12T07:59:05;99819.22;;;25.09;54.48
21863;BME280;11096;51.338;12.524;2023-09-12T08:01:31;99829.38;;;25.38;54.97
21863;BME280;11096;51.338;12.524;2023-09-12T08:03:56;99831.50;;;24.83;55.60
21863;BME280;11096;51.338;12.524;2023-09-12T08:06:22;99834.16;;;24.83;56.49
21863;BME280;11096;51.338;12.524;2023-09-12T08:08:49;99836.50;;;25.51;55.66
21863;BME280;11096;51.338;12.524;2023-09-12T08:11:14;99838.00;;;25.79;54.86
21863;BME280;11096;51.338;12.524;2023-09-12T08:13:40;99835.41;;;26.04;54.11
21863;BME280;11096;51.338;12.524;2023-09-12T08:16:05;99836.41;;;25.71;54.28
21863;BME280;11096;51.338;12.524;2023-09-12T08:18:30;99837.78;;;25.87;54.32
21863;BME280;11096;51.338;12.524;2023-09-12T08:20:56;99838.34;;;25.96;53.78
21863;BME280;11096;51.338;12.524;2023-09-12T08:23:22;99842.19;;;25.55;54.36
21863;BME280;11096;51.338;12.524;2023-09-12T08:25:47;99840.88;;;25.77;55.17
21863;BME280;11096;51.338;12.524;2023-09-12T08:28:13;99839.38;;;25.95;54.27
21863;BME280;11096;51.338;12.524;2023-09-12T08:30:39;99843.06;;;26.50;53.70
21863;BME280;11096;51.338;12.524;2023-09-12T08:33:04;99845.25;;;27.10;53.07
21863;BME280;11096;51.338;12.524;2023-09-12T08:35:32;99846.59;;;27.38;52.00
21863;BME280;11096;51.338;12.524;2023-09-12T08:37:57;99846.72;;;27.61;51.71
21863;BME280;11096;51.338;12.524;2023-09-12T08:40:23;99836.81;;;27.32;50.61
21863;BME280;11096;51.338;12.524;2023-09-12T08:42:49;99834.09;;;27.69;51.03
21863;BME280;11096;51.338;12.524;2023-09-12T08:45:17;99834.88;;;28.18;50.73
21863;BME280;11096;51.338;12.524;2023-09-12T08:47:45;99829.47;;;27.64;50.74
21863;BME280;11096;51.338;12.524;2023-09-12T08:50:12;99824.00;;;28.31;50.26
21863;BME280;11096;51.338;12.524;2023-09-12T08:52:40;99816.84;;;28.90;48.50
21863;BME280;11096;51.338;12.524;2023-09-12T08:55:06;99824.53;;;29.10;47.88
21863;BME280;11096;51.338;12.524;2023-09-12T08:57:33;99825.19;;;29.29;48.16
21863;BME280;11096;51.338;12.524;2023-09-12T09:00:01;99821.94;;;29.27;47.51
21863;BME280;11096;51.338;12.524;2023-09-12T09:02:35;99822.09;;;28.85;48.67
21863;BME280;11096;51.338;12.524;2023-09-12T09:05:02;99822.66;;;29.11;48.35
21863;BME280;11096;51.338;12.524;2023-09-12T09:07:41;99831.00;;;29.26;48.25
21863;BME280;11096;51.338;12.524;2023-09-12T09:10:09;99837.28;;;29.61;47.79
21863;BME280;11096;51.338;12.524;2023-09-12T09:12:35;99838.47;;;29.24;48.81
21863;BME280;11096;51.338;12.524;2023-09-12T09:15:19;99837.81;;;29.46;48.38
21863;BME280;11096;51.338;12.524;2023-09-12T09:17:46;99837.88;;;29.74;48.53
21863;BME280;11096;51.338;12.524;2023-09-12T09:20:30;99836.94;;;30.43;47.09
21863;BME280;11096;51.338;12.524;2023-09-12T09:25:23;99825.25;;;31.71;44.36
21863;BME280;11096;51.338;12.524;2023-09-12T09:27:48;99831.19;;;31.73;44.79
21863;BME280;11096;51.338;12.524;2023-09-12T09:30:14;99837.16;;;31.53;44.11
21863;BME280;11096;51.338;12.524;2023-09-12T09:32:39;99834.13;;;31.99;43.60
21863;BME280;11096;51.338;12.524;2023-09-12T09:35:04;99834.28;;;31.65;44.90
21863;BME280;11096;51.338;12.524;2023-09-12T09:37:30;99830.31;;;32.54;43.53
21863;BME280;11096;51.338;12.524;2023-09-12T09:39:55;99835.78;;;33.12;41.92
21863;BME280;11096;51.338;12.524;2023-09-12T09:42:21;99826.72;;;36.51;36.68
21863;BME280;11096;51.338;12.524;2023-09-12T09:44:47;99820.22;;;37.68;33.61
21863;BME280;11096;51.338;12.524;2023-09-12T09:47:12;99819.72;;;38.17;32.66
21863;BME280;11096;51.338;12.524;2023-09-12T09:49:38;99811.66;;;39.42;31.52
21863;BME280;11096;51.338;12.524;2023-09-12T09:52:04;99819.75;;;39.05;31.71
21863;BME280;11096;51.338;12.524;2023-09-12T09:54:30;99816.19;;;39.83;30.89
21863;BME280;11096;51.338;12.524;2023-09-12T09:56:56;99821.97;;;40.12;30.89
21863;BME280;11096;51.338;12.524;2023-09-12T09:59:24;99817.97;;;40.10;30.58
21863;BME280;11096;51.338;12.524;2023-09-12T10:01:50;99813.84;;;40.44;30.04
21863;BME280;11096;51.338;12.524;2023-09-12T10:04:19;99809.84;;;38.54;31.38
21863;BME280;11096;51.338;12.524;2023-09-12T10:06:46;99803.63;;;39.96;30.69
21863;BME280;11096;51.338;12.524;2023-09-12T10:09:13;99806.84;;;39.98;30.94
21863;BME280;11096;51.338;12.524;2023-09-12T10:11:43;99813.63;;;39.00;31.70
21863;BME280;11096;51.338;12.524;2023-09-12T10:14:09;99806.19;;;39.78;31.06
21863;BME280;11096;51.338;12.524;2023-09-12T10:16:44;99803.13;;;37.29;33.44
21863;BME280;11096;51.338;12.524;2023-09-12T10:21:48;99806.63;;;34.84;37.65
21863;BME280;11096;51.338;12.524;2023-09-12T10:24:15;99807.22;;;34.30;38.92
21863;BME280;11096;51.338;12.524;2023-09-12T10:26:42;99802.88;;;33.93;40.75
21863;BME280;11096;51.338;12.524;2023-09-12T10:29:12;99798.06;;;35.82;37.78
21863;BME280;11096;51.338;12.524;2023-09-12T10:31:39;99796.25;;;36.06;37.48
21863;BME280;11096;51.338;12.524;2023-09-12T10:34:05;99789.19;;;36.93;35.63
21863;BME280;11096;51.338;12.524;2023-09-12T10:36:38;99782.91;;;37.41;34.64
21863;BME280;11096;51.338;12.524;2023-09-12T10:39:04;99771.13;;;37.69;33.12
21863;BME280;11096;51.338;12.524;2023-09-12T10:41:30;99777.88;;;38.37;32.00
21863;BME280;11096;51.338;12.524;2023-09-12T10:43:57;99776.44;;;39.37;31.27
21863;BME280;11096;51.338;12.524;2023-09-12T10:46:23;99771.09;;;39.32;30.81
21863;BME280;11096;51.338;12.524;2023-09-12T10:48:49;99771.38;;;39.30;30.47
21863;BME280;11096;51.338;12.524;2023-09-12T10:51:16;99763.31;;;42.34;27.72
21863;BME280;11096;51.338;12.524;2023-09-12T10:53:46;99765.09;;;42.98;26.35
21863;BME280;11096;51.338;12.524;2023-09-12T10:56:16;99755.06;;;42.04;26.61
21863;BME280;11096;51.338;12.524;2023-09-12T11:01:29;99761.56;;;45.29;23.75
21863;BME280;11096;51.338;12.524;2023-09-12T11:03:55;99753.94;;;47.94;21.15
21863;BME280;11096;51.338;12.524;2023-09-12T11:06:30;99737.72;;;46.21;21.71
21863;BME280;11096;51.338;12.524;2023-09-12T11:11:47;99742.66;;;46.32;22.50
21863;BME280;11096;51.338;12.524;2023-09-12T11:14:13;99736.47;;;45.71;22.87
21863;BME280;11096;51.338;12.524;2023-09-12T11:16:41;99736.94;;;45.61;23.48
21863;BME280;11096;51.338;12.524;2023-09-12T11:19:21;99729.22;;;45.95;22.49
21863;BME280;11096;51.338;12.524;2023-09-12T11:21:53;99738.25;;;45.11;23.84
21863;BME280;11096;51.338;12.524;2023-09-12T11:24:20;99734.56;;;41.37;26.72
21863;BME280;11096;51.338;12.524;2023-09-12T11:26:57;99725.81;;;43.45;25.86
21863;BME280;11096;51.338;12.524;2023-09-12T11:29:35;99742.38;;;43.82;25.35
21863;BME280;11096;51.338;12.524;2023-09-12T11:32:02;99741.78;;;44.83;23.64
21863;BME280;11096;51.338;12.524;2023-09-12T11:34:30;99737.00;;;46.24;21.87
21863;BME280;11096;51.338;12.524;2023-09-12T11:37:00;99752.34;;;44.97;23.22
21863;BME280;11096;51.338;12.524;2023-09-12T11:39:29;99744.91;;;47.32;20.67
21863;BME280;11096;51.338;12.524;2023-09-12T11:41:57;99746.06;;;44.96;22.39
21863;BME280;11096;51.338;12.524;2023-09-12T11:44:23;99738.56;;;43.62;23.56
21863;BME280;11096;51.338;12.524;2023-09-12T11:46:49;99740.56;;;43.98;23.98
21863;BME280;11096;51.338;12.524;2023-09-12T11:49:16;99735.06;;;44.56;23.76
21863;BME280;11096;51.338;12.524;2023-09-12T11:51:53;99728.69;;;45.05;22.35
21863;BME280;11096;51.338;12.524;2023-09-12T11:54:20;99744.00;;;45.06;22.61
21863;BME280;11096;51.338;12.524;2023-09-12T11:56:49;99734.31;;;44.96;22.14
21863;BME280;11096;51.338;12.524;2023-09-12T11:59:15;99725.88;;;42.35;25.16
21863;BME280;11096;51.338;12.524;2023-09-12T12:01:44;99738.75;;;41.52;25.88
21863;BME280;11096;51.338;12.524;2023-09-12T12:04:11;99735.84;;;41.75;25.81
21863;BME280;11096;51.338;12.524;2023-09-12T12:06:36;99747.09;;;44.06;23.86
21863;BME280;11096;51.338;12.524;2023-09-12T12:09:02;99747.47;;;44.17;23.76
21863;BME280;11096;51.338;12.524;2023-09-12T12:11:30;99748.53;;;43.91;24.04
21863;BME280;11096;51.338;12.524;2023-09-12T12:13:55;99750.00;;;44.58;22.99
21863;BME280;11096;51.338;12.524;2023-09-12T12:16:20;99739.78;;;45.36;22.41
21863;BME280;11096;51.338;12.524;2023-09-12T12:18:46;99741.72;;;43.64;23.69
21863;BME280;11096;51.338;12.524;2023-09-12T12:21:12;99743.72;;;44.83;22.42
21863;BME280;11096;51.338;12.524;2023-09-12T12:23:37;99743.66;;;45.07;22.41
21863;BME280;11096;51.338;12.524;2023-09-12T12:26:05;99739.25;;;42.19;24.46
21863;BME280;11096;51.338;12.524;2023-09-12T12:28:31;99739.25;;;42.19;24.87
21863;BME280;11096;51.338;12.524;2023-09-12T12:30:56;99730.34;;;41.92;25.29
21863;BME280;11096;51.338;12.524;2023-09-12T12:33:22;99730.03;;;40.01;27.62
21863;BME280;11096;51.338;12.524;2023-09-12T12:35:47;99736.72;;;38.16;30.08
21863;BME280;11096;51.338;12.524;2023-09-12T12:38:14;99732.78;;;39.19;29.06
21863;BME280;11096;51.338;12.524;2023-09-12T12:40:40;99730.47;;;39.13;28.98
21863;BME280;11096;51.338;12.524;2023-09-12T12:43:05;99728.78;;;39.03;28.73
21863;BME280;11096;51.338;12.524;2023-09-12T12:45:31;99735.16;;;38.71;30.03
21863;BME280;11096;51.338;12.524;2023-09-12T12:48:00;99728.41;;;38.54;29.56
21863;BME280;11096;51.338;12.524;2023-09-12T12:50:26;99741.75;;;36.47;32.51
21863;BME280;11096;51.338;12.524;2023-09-12T12:52:51;99733.28;;;35.72;33.14
21863;BME280;11096;51.338;12.524;2023-09-12T12:55:17;99734.03;;;35.38;33.55
21863;BME280;11096;51.338;12.524;2023-09-12T12:57:44;99721.81;;;35.85;33.38
21863;BME280;11096;51.338;12.524;2023-09-12T13:00:16;99729.25;;;35.19;34.85
21863;BME280;11096;51.338;12.524;2023-09-12T13:02:44;99726.06;;;35.07;35.59
21863;BME280;11096;51.338;12.524;2023-09-12T13:05:27;99721.13;;;34.65;36.00